Ben Mered, Algeria

7:53 AM CET on July 24, 2017 (GMT +0100)
Algiers Airport | | Change Station

Elev 82 ft 36.72 °N, 3.25 °E | Updated 23 minutes ago

Partly Cloudy
Partly Cloudy
81 °F
Feels Like 87 °F
N
5
Wind Variable Wind from SSW

Today
High -- | Low -- °F
--% Chance of Precip.
Yesterday
High -- | Low -- °F
Precip. -- in
Pressure 30.01 in
Visibility 3.7 miles
Clouds Scattered Clouds 1600 ft
Scattered Clouds 2000 ft
Few 2600 ft
Heat Index 87 °F
Dew Point 77 °F
Humidity 89%
Rainfall 0.00 in
Snow Depth Not available.
5:46 AM 8:00 PM
New Moon, 1% visible
METAR DAAG 240630Z 21004KT 180V240 6000 SCT016 SCT020 FEW026CB 27/25 Q1016
Pressure 30.01 in
Visibility 3.7 miles
Clouds Scattered Clouds 1600 ft
Scattered Clouds 2000 ft
Few 2600 ft
Heat Index 87 °F
Dew Point 77 °F
Humidity 89%
Rainfall 0.00 in
Snow Depth Not available.
5:46 AM 8:00 PM
New Moon, 1% visible
METAR DAAG 240630Z 21004KT 180V240 6000 SCT016 SCT020 FEW026CB 27/25 Q1016

Get Severe Weather Alerts

Thanks for signing up!

Be on the lookout for a verification email in your inbox.

You'll start receiving the daily forecast at 6 AM.

×

10-Day Weather Forecast

No radar image for this location.
×

Almanac

Astronomy

Jul. 24, 2017 Rise Set
Actual Time
Civil Twilight
Nautical Twilight
Astronomical Twilight
Moon
Length of Visible Light
Length of Day
Tomorrow will be .
, % of the Moon is Illuminated

Today's Extremes

Country Highs Country Lows

Community

WunderPhotos

Category 6

Welcome to Category 6. This is the collective home for Weather Underground's featured writeups by Dr. Jeff Masters (right), Bob Henson (left), Chris Burt, and other regular contributors.

Nearby

Air Quality

  Air Quality AQ Index Pollutant
Not available.

Snow Depth

Station Depth Elevation

Earthquake Activity

City Distance Mag. Time & Date
Minimum magnitude displayed is 2.5.

Coastal Water Temperatures

Place Temperature

Stations

Nearby Weather Stations

Station Location Temp. Windchill Dew Point Humidity Wind Precip. Elev Updated Type